sensor_id;sensor_type;location;lat;lon;timestamp;P1;durP1;ratioP1;P2;durP2;ratioP2
35496;SDS011;21609;49.298;6.844;2023-12-20T00:01:35;3.88;;;2.58;;
35496;SDS011;21609;49.298;6.844;2023-12-20T00:04:00;1.55;;;1.45;;
35496;SDS011;21609;49.298;6.844;2023-12-20T00:06:27;2.50;;;2.30;;
35496;SDS011;21609;49.298;6.844;2023-12-20T00:08:52;1.70;;;1.60;;
35496;SDS011;21609;49.298;6.844;2023-12-20T00:11:18;2.53;;;2.33;;
35496;SDS011;21609;49.298;6.844;2023-12-20T00:13:44;1.92;;;1.83;;
35496;SDS011;21609;49.298;6.844;2023-12-20T00:16:09;2.67;;;2.35;;
35496;SDS011;21609;49.298;6.844;2023-12-20T00:18:35;2.70;;;2.38;;
35496;SDS011;21609;49.298;6.844;2023-12-20T00:21:00;1.85;;;1.75;;
35496;SDS011;21609;49.298;6.844;2023-12-20T00:23:26;3.70;;;3.00;;
35496;SDS011;21609;49.298;6.844;2023-12-20T00:25:54;3.40;;;2.72;;
35496;SDS011;21609;49.298;6.844;2023-12-20T00:28:19;5.13;;;2.42;;
35496;SDS011;21609;49.298;6.844;2023-12-20T00:30:45;3.80;;;1.83;;
35496;SDS011;21609;49.298;6.844;2023-12-20T00:33:10;17.73;;;2.80;;
35496;SDS011;21609;49.298;6.844;2023-12-20T00:35:36;7.63;;;2.40;;
35496;SDS011;21609;49.298;6.844;2023-12-20T00:38:01;6.90;;;3.50;;
35496;SDS011;21609;49.298;6.844;2023-12-20T00:40:27;7.85;;;2.65;;
35496;SDS011;21609;49.298;6.844;2023-12-20T00:42:53;5.65;;;2.90;;
35496;SDS011;21609;49.298;6.844;2023-12-20T00:45:18;1.77;;;1.58;;
35496;SDS011;21609;49.298;6.844;2023-12-20T00:47:44;5.93;;;2.67;;
35496;SDS011;21609;49.298;6.844;2023-12-20T00:50:10;3.63;;;2.33;;
35496;SDS011;21609;49.298;6.844;2023-12-20T00:52:35;4.75;;;2.60;;
35496;SDS011;21609;49.298;6.844;2023-12-20T00:55:01;4.38;;;2.53;;
35496;SDS011;21609;49.298;6.844;2023-12-20T00:57:26;2.47;;;1.60;;
35496;SDS011;21609;49.298;6.844;2023-12-20T00:59:52;4.13;;;2.53;;
35496;SDS011;21609;49.298;6.844;2023-12-20T01:02:17;3.58;;;2.33;;
35496;SDS011;21609;49.298;6.844;2023-12-20T01:04:44;3.10;;;2.78;;
35496;SDS011;21609;49.298;6.844;2023-12-20T01:07:09;3.03;;;2.17;;
35496;SDS011;21609;49.298;6.844;2023-12-20T01:09:35;9.55;;;3.05;;
35496;SDS011;21609;49.298;6.844;2023-12-20T01:12:00;3.05;;;1.90;;
35496;SDS011;21609;49.298;6.844;2023-12-20T01:14:26;3.38;;;2.35;;
35496;SDS011;21609;49.298;6.844;2023-12-20T01:16:51;3.05;;;2.30;;
35496;SDS011;21609;49.298;6.844;2023-12-20T01:19:17;2.10;;;1.70;;
35496;SDS011;21609;49.298;6.844;2023-12-20T01:21:42;3.38;;;2.40;;
35496;SDS011;21609;49.298;6.844;2023-12-20T01:24:08;3.15;;;2.15;;
35496;SDS011;21609;49.298;6.844;2023-12-20T01:26:34;4.13;;;2.50;;
35496;SDS011;21609;49.298;6.844;2023-12-20T01:28:59;2.70;;;2.13;;
35496;SDS011;21609;49.298;6.844;2023-12-20T01:31:26;2.55;;;1.77;;
35496;SDS011;21609;49.298;6.844;2023-12-20T01:33:52;2.40;;;2.13;;
35496;SDS011;21609;49.298;6.844;2023-12-20T01:36:17;4.20;;;2.25;;
35496;SDS011;21609;49.298;6.844;2023-12-20T01:38:43;2.10;;;1.95;;
35496;SDS011;21609;49.298;6.844;2023-12-20T01:41:09;4.20;;;1.55;;
35496;SDS011;21609;49.298;6.844;2023-12-20T01:43:34;1.80;;;1.70;;
35496;SDS011;21609;49.298;6.844;2023-12-20T01:46:00;2.53;;;1.63;;
35496;SDS011;21609;49.298;6.844;2023-12-20T01:48:25;2.33;;;1.77;;
35496;SDS011;21609;49.298;6.844;2023-12-20T01:50:53;2.33;;;2.13;;
35496;SDS011;21609;49.298;6.844;2023-12-20T01:53:20;2.42;;;2.10;;
35496;SDS011;21609;49.298;6.844;2023-12-20T01:55:48;2.20;;;1.73;;
35496;SDS011;21609;49.298;6.844;2023-12-20T01:58:17;3.60;;;2.22;;
35496;SDS011;21609;49.298;6.844;2023-12-20T02:00:44;3.10;;;2.38;;
35496;SDS011;21609;49.298;6.844;2023-12-20T02:03:09;2.25;;;2.05;;
35496;SDS011;21609;49.298;6.844;2023-12-20T02:05:36;1.67;;;1.58;;
35496;SDS011;21609;49.298;6.844;2023-12-20T02:08:03;4.93;;;2.50;;
35496;SDS011;21609;49.298;6.844;2023-12-20T02:10:30;1.55;;;1.38;;
35496;SDS011;21609;49.298;6.844;2023-12-20T02:12:56;2.63;;;1.80;;
35496;SDS011;21609;49.298;6.844;2023-12-20T02:15:22;1.92;;;1.77;;
35496;SDS011;21609;49.298;6.844;2023-12-20T02:17:48;5.88;;;2.00;;
35496;SDS011;21609;49.298;6.844;2023-12-20T02:20:14;2.35;;;1.63;;
35496;SDS011;21609;49.298;6.844;2023-12-20T02:22:39;1.90;;;1.77;;
35496;SDS011;21609;49.298;6.844;2023-12-20T02:25:05;2.03;;;1.83;;
35496;SDS011;21609;49.298;6.844;2023-12-20T02:27:31;2.13;;;1.77;;
35496;SDS011;21609;49.298;6.844;2023-12-20T02:29:56;2.30;;;2.10;;
35496;SDS011;21609;49.298;6.844;2023-12-20T02:32:22;2.20;;;1.90;;
35496;SDS011;21609;49.298;6.844;2023-12-20T02:34:52;1.95;;;1.42;;
35496;SDS011;21609;49.298;6.844;2023-12-20T02:37:18;1.95;;;1.80;;
35496;SDS011;21609;49.298;6.844;2023-12-20T02:39:43;3.45;;;1.98;;
35496;SDS011;21609;49.298;6.844;2023-12-20T02:42:09;2.83;;;1.63;;
35496;SDS011;21609;49.298;6.844;2023-12-20T02:44:34;2.10;;;1.88;;
35496;SDS011;21609;49.298;6.844;2023-12-20T02:47:01;4.35;;;2.15;;
35496;SDS011;21609;49.298;6.844;2023-12-20T02:49:27;4.50;;;1.80;;
35496;SDS011;21609;49.298;6.844;2023-12-20T02:51:52;2.38;;;2.13;;
35496;SDS011;21609;49.298;6.844;2023-12-20T02:54:18;2.13;;;1.90;;
35496;SDS011;21609;49.298;6.844;2023-12-20T02:56:43;5.55;;;1.88;;
35496;SDS011;21609;49.298;6.844;2023-12-20T02:59:09;2.00;;;1.80;;
35496;SDS011;21609;49.298;6.844;2023-12-20T03:01:34;1.98;;;1.77;;
35496;SDS011;21609;49.298;6.844;2023-12-20T03:04:06;1.88;;;1.60;;
35496;SDS011;21609;49.298;6.844;2023-12-20T03:06:31;2.63;;;1.60;;
35496;SDS011;21609;49.298;6.844;2023-12-20T03:08:57;1.90;;;1.65;;
35496;SDS011;21609;49.298;6.844;2023-12-20T03:11:26;2.30;;;2.10;;
35496;SDS011;21609;49.298;6.844;2023-12-20T03:13:52;1.40;;;1.30;;
35496;SDS011;21609;49.298;6.844;2023-12-20T03:16:18;1.33;;;1.23;;
35496;SDS011;21609;49.298;6.844;2023-12-20T03:18:43;4.38;;;1.63;;
35496;SDS011;21609;49.298;6.844;2023-12-20T03:21:09;1.80;;;1.70;;
35496;SDS011;21609;49.298;6.844;2023-12-20T03:23:34;1.60;;;1.50;;
35496;SDS011;21609;49.298;6.844;2023-12-20T03:26:00;2.20;;;1.75;;
35496;SDS011;21609;49.298;6.844;2023-12-20T03:28:26;2.50;;;1.80;;
35496;SDS011;21609;49.298;6.844;2023-12-20T03:30:52;2.00;;;1.80;;
35496;SDS011;21609;49.298;6.844;2023-12-20T03:33:18;1.60;;;1.50;;
35496;SDS011;21609;49.298;6.844;2023-12-20T03:35:43;2.30;;;1.75;;
35496;SDS011;21609;49.298;6.844;2023-12-20T03:38:09;2.00;;;1.50;;
35496;SDS011;21609;49.298;6.844;2023-12-20T03:40:35;2.97;;;1.73;;
35496;SDS011;21609;49.298;6.844;2023-12-20T03:43:00;1.80;;;1.70;;
35496;SDS011;21609;49.298;6.844;2023-12-20T03:45:26;1.98;;;1.60;;
35496;SDS011;21609;49.298;6.844;2023-12-20T03:47:51;1.52;;;1.35;;
35496;SDS011;21609;49.298;6.844;2023-12-20T03:50:20;2.63;;;1.50;;
35496;SDS011;21609;49.298;6.844;2023-12-20T03:52:48;2.30;;;2.10;;
35496;SDS011;21609;49.298;6.844;2023-12-20T03:55:14;2.15;;;1.80;;
35496;SDS011;21609;49.298;6.844;2023-12-20T03:57:40;1.67;;;1.50;;
35496;SDS011;21609;49.298;6.844;2023-12-20T04:00:08;2.42;;;1.88;;
35496;SDS011;21609;49.298;6.844;2023-12-20T04:02:38;2.20;;;1.42;;
35496;SDS011;21609;49.298;6.844;2023-12-20T04:05:07;2.60;;;1.55;;
35496;SDS011;21609;49.298;6.844;2023-12-20T04:07:33;1.60;;;1.50;;
35496;SDS011;21609;49.298;6.844;2023-12-20T04:10:00;2.20;;;1.70;;
35496;SDS011;21609;49.298;6.844;2023-12-20T04:12:26;2.03;;;1.38;;
35496;SDS011;21609;49.298;6.844;2023-12-20T04:14:53;1.60;;;1.50;;
35496;SDS011;21609;49.298;6.844;2023-12-20T04:17:18;2.00;;;1.60;;
35496;SDS011;21609;49.298;6.844;2023-12-20T04:19:44;1.83;;;1.50;;
35496;SDS011;21609;49.298;6.844;2023-12-20T04:22:10;1.90;;;1.80;;
35496;SDS011;21609;49.298;6.844;2023-12-20T04:24:38;1.45;;;1.35;;
35496;SDS011;21609;49.298;6.844;2023-12-20T04:27:04;2.05;;;1.85;;
35496;SDS011;21609;49.298;6.844;2023-12-20T04:29:29;1.90;;;1.58;;
35496;SDS011;21609;49.298;6.844;2023-12-20T04:31:55;1.52;;;1.42;;
35496;SDS011;21609;49.298;6.844;2023-12-20T04:34:20;1.52;;;1.42;;
35496;SDS011;21609;49.298;6.844;2023-12-20T04:36:47;1.73;;;1.30;;
35496;SDS011;21609;49.298;6.844;2023-12-20T04:39:12;1.95;;;1.67;;
35496;SDS011;21609;49.298;6.844;2023-12-20T04:41:39;1.42;;;1.08;;
35496;SDS011;21609;49.298;6.844;2023-12-20T04:44:05;1.70;;;1.40;;
35496;SDS011;21609;49.298;6.844;2023-12-20T04:46:31;1.63;;;1.30;;
35496;SDS011;21609;49.298;6.844;2023-12-20T04:48:56;1.77;;;1.45;;
35496;SDS011;21609;49.298;6.844;2023-12-20T04:51:22;1.38;;;1.27;;
35496;SDS011;21609;49.298;6.844;2023-12-20T04:53:48;1.70;;;1.55;;
35496;SDS011;21609;49.298;6.844;2023-12-20T04:56:13;1.63;;;1.40;;
35496;SDS011;21609;49.298;6.844;2023-12-20T04:58:39;1.98;;;1.50;;
35496;SDS011;21609;49.298;6.844;2023-12-20T05:01:05;1.55;;;1.20;;
35496;SDS011;21609;49.298;6.844;2023-12-20T05:03:31;1.88;;;1.42;;
35496;SDS011;21609;49.298;6.844;2023-12-20T05:05:57;1.38;;;1.27;;
35496;SDS011;21609;49.298;6.844;2023-12-20T05:08:23;1.50;;;1.40;;
35496;SDS011;21609;49.298;6.844;2023-12-20T05:10:48;1.67;;;1.20;;
35496;SDS011;21609;49.298;6.844;2023-12-20T05:13:14;1.67;;;1.42;;
35496;SDS011;21609;49.298;6.844;2023-12-20T05:15:40;1.52;;;1.42;;
35496;SDS011;21609;49.298;6.844;2023-12-20T05:18:06;2.25;;;1.33;;
35496;SDS011;21609;49.298;6.844;2023-12-20T05:20:31;2.05;;;1.30;;
35496;SDS011;21609;49.298;6.844;2023-12-20T05:22:57;1.33;;;1.23;;
35496;SDS011;21609;49.298;6.844;2023-12-20T05:25:22;1.48;;;1.30;;
35496;SDS011;21609;49.298;6.844;2023-12-20T05:27:48;2.05;;;1.50;;
35496;SDS011;21609;49.298;6.844;2023-12-20T05:30:13;1.90;;;1.50;;
35496;SDS011;21609;49.298;6.844;2023-12-20T05:32:39;1.67;;;1.58;;
35496;SDS011;21609;49.298;6.844;2023-12-20T05:35:05;1.38;;;1.27;;
35496;SDS011;21609;49.298;6.844;2023-12-20T05:37:30;1.67;;;1.35;;
35496;SDS011;21609;49.298;6.844;2023-12-20T05:39:56;1.73;;;1.50;;
35496;SDS011;21609;49.298;6.844;2023-12-20T05:42:21;1.50;;;1.40;;
35496;SDS011;21609;49.298;6.844;2023-12-20T05:44:47;1.50;;;1.40;;
35496;SDS011;21609;49.298;6.844;2023-12-20T05:47:12;1.55;;;1.08;;
35496;SDS011;21609;49.298;6.844;2023-12-20T05:49:38;1.60;;;1.15;;
35496;SDS011;21609;49.298;6.844;2023-12-20T05:52:03;1.05;;;0.98;;
35496;SDS011;21609;49.298;6.844;2023-12-20T05:54:29;1.60;;;1.17;;
35496;SDS011;21609;49.298;6.844;2023-12-20T05:56:55;1.65;;;1.38;;
35496;SDS011;21609;49.298;6.844;2023-12-20T05:59:21;1.42;;;1.00;;
35496;SDS011;21609;49.298;6.844;2023-12-20T06:01:46;1.58;;;1.40;;
35496;SDS011;21609;49.298;6.844;2023-12-20T06:04:12;1.42;;;1.08;;
35496;SDS011;21609;49.298;6.844;2023-12-20T06:06:41;1.30;;;1.20;;
35496;SDS011;21609;49.298;6.844;2023-12-20T06:09:07;1.42;;;1.33;;
35496;SDS011;21609;49.298;6.844;2023-12-20T06:11:33;1.70;;;1.27;;
35496;SDS011;21609;49.298;6.844;2023-12-20T06:13:58;1.90;;;1.20;;
35496;SDS011;21609;49.298;6.844;2023-12-20T06:16:24;1.20;;;1.10;;
35496;SDS011;21609;49.298;6.844;2023-12-20T06:18:49;1.35;;;1.25;;
35496;SDS011;21609;49.298;6.844;2023-12-20T06:21:15;1.67;;;1.40;;
35496;SDS011;21609;49.298;6.844;2023-12-20T06:23:41;1.35;;;1.20;;
35496;SDS011;21609;49.298;6.844;2023-12-20T06:26:07;1.35;;;0.93;;
35496;SDS011;21609;49.298;6.844;2023-12-20T06:28:32;1.20;;;1.10;;
35496;SDS011;21609;49.298;6.844;2023-12-20T06:30:58;1.33;;;1.20;;
35496;SDS011;21609;49.298;6.844;2023-12-20T06:33:25;1.40;;;1.25;;
35496;SDS011;21609;49.298;6.844;2023-12-20T06:35:51;1.52;;;1.42;;
35496;SDS011;21609;49.298;6.844;2023-12-20T06:38:17;1.67;;;1.23;;
35496;SDS011;21609;49.298;6.844;2023-12-20T06:40:43;1.63;;;1.38;;
35496;SDS011;21609;49.298;6.844;2023-12-20T06:43:09;1.40;;;1.30;;
35496;SDS011;21609;49.298;6.844;2023-12-20T06:45:35;1.73;;;1.50;;
35496;SDS011;21609;49.298;6.844;2023-12-20T06:48:00;1.85;;;1.30;;
35496;SDS011;21609;49.298;6.844;2023-12-20T06:50:26;0.93;;;0.93;;
35496;SDS011;21609;49.298;6.844;2023-12-20T06:52:52;1.45;;;1.15;;
35496;SDS011;21609;49.298;6.844;2023-12-20T06:55:18;1.92;;;1.45;;
35496;SDS011;21609;49.298;6.844;2023-12-20T06:57:43;1.20;;;1.10;;
35496;SDS011;21609;49.298;6.844;2023-12-20T07:00:10;1.65;;;1.40;;
35496;SDS011;21609;49.298;6.844;2023-12-20T07:02:36;1.95;;;1.13;;
35496;SDS011;21609;49.298;6.844;2023-12-20T07:05:02;1.98;;;1.70;;
35496;SDS011;21609;49.298;6.844;2023-12-20T07:07:27;1.30;;;1.20;;
35496;SDS011;21609;49.298;6.844;2023-12-20T07:09:53;2.10;;;1.20;;
35496;SDS011;21609;49.298;6.844;2023-12-20T07:12:18;1.20;;;1.00;;
35496;SDS011;21609;49.298;6.844;2023-12-20T07:14:44;3.28;;;1.20;;
35496;SDS011;21609;49.298;6.844;2023-12-20T07:17:10;2.05;;;1.38;;
35496;SDS011;21609;49.298;6.844;2023-12-20T07:19:38;1.23;;;1.05;;
35496;SDS011;21609;49.298;6.844;2023-12-20T07:22:05;1.45;;;0.98;;
35496;SDS011;21609;49.298;6.844;2023-12-20T07:24:31;2.40;;;1.58;;
35496;SDS011;21609;49.298;6.844;2023-12-20T07:26:57;2.85;;;1.17;;
35496;SDS011;21609;49.298;6.844;2023-12-20T07:29:22;1.00;;;0.90;;
35496;SDS011;21609;49.298;6.844;2023-12-20T07:31:48;1.20;;;1.08;;
35496;SDS011;21609;49.298;6.844;2023-12-20T07:34:13;3.35;;;1.02;;
35496;SDS011;21609;49.298;6.844;2023-12-20T07:36:39;1.00;;;0.85;;
35496;SDS011;21609;49.298;6.844;2023-12-20T07:39:04;2.72;;;1.55;;
35496;SDS011;21609;49.298;6.844;2023-12-20T07:41:30;1.23;;;1.13;;
35496;SDS011;21609;49.298;6.844;2023-12-20T07:43:55;1.20;;;1.10;;
35496;SDS011;21609;49.298;6.844;2023-12-20T07:46:21;1.70;;;1.17;;
35496;SDS011;21609;49.298;6.844;2023-12-20T07:48:50;2.38;;;1.25;;
35496;SDS011;21609;49.298;6.844;2023-12-20T07:51:15;1.40;;;1.08;;
35496;SDS011;21609;49.298;6.844;2023-12-20T07:53:41;2.63;;;1.17;;
35496;SDS011;21609;49.298;6.844;2023-12-20T07:56:16;1.85;;;1.17;;
35496;SDS011;21609;49.298;6.844;2023-12-20T07:58:42;1.00;;;0.90;;
35496;SDS011;21609;49.298;6.844;2023-12-20T08:01:08;1.75;;;1.20;;
35496;SDS011;21609;49.298;6.844;2023-12-20T08:03:34;2.15;;;1.33;;
35496;SDS011;21609;49.298;6.844;2023-12-20T08:05:59;1.30;;;1.13;;
35496;SDS011;21609;49.298;6.844;2023-12-20T08:08:25;8.82;;;1.42;;
35496;SDS011;21609;49.298;6.844;2023-12-20T08:10:51;1.50;;;1.05;;
35496;SDS011;21609;49.298;6.844;2023-12-20T08:13:16;2.30;;;0.93;;
35496;SDS011;21609;49.298;6.844;2023-12-20T08:15:42;1.02;;;0.82;;
35496;SDS011;21609;49.298;6.844;2023-12-20T08:18:07;2.05;;;1.13;;
35496;SDS011;21609;49.298;6.844;2023-12-20T08:20:33;1.75;;;1.02;;
35496;SDS011;21609;49.298;6.844;2023-12-20T08:22:58;1.20;;;1.00;;
35496;SDS011;21609;49.298;6.844;2023-12-20T08:25:24;2.13;;;1.00;;
35496;SDS011;21609;49.298;6.844;2023-12-20T08:27:49;1.50;;;1.23;;
35496;SDS011;21609;49.298;6.844;2023-12-20T08:30:15;2.20;;;1.17;;
35496;SDS011;21609;49.298;6.844;2023-12-20T08:32:45;0.80;;;0.80;;
35496;SDS011;21609;49.298;6.844;2023-12-20T08:35:11;1.00;;;0.80;;
35496;SDS011;21609;49.298;6.844;2023-12-20T08:37:36;1.98;;;1.35;;
35496;SDS011;21609;49.298;6.844;2023-12-20T08:40:02;1.48;;;0.95;;
35496;SDS011;21609;49.298;6.844;2023-12-20T08:42:27;1.65;;;1.35;;
35496;SDS011;21609;49.298;6.844;2023-12-20T08:44:56;1.33;;;0.80;;
35496;SDS011;21609;49.298;6.844;2023-12-20T08:47:25;2.00;;;1.13;;
35496;SDS011;21609;49.298;6.844;2023-12-20T08:49:50;2.28;;;1.20;;
35496;SDS011;21609;49.298;6.844;2023-12-20T08:52:16;1.42;;;1.00;;
35496;SDS011;21609;49.298;6.844;2023-12-20T08:54:41;1.17;;;0.98;;
35496;SDS011;21609;49.298;6.844;2023-12-20T08:57:07;1.15;;;0.90;;
35496;SDS011;21609;49.298;6.844;2023-12-20T08:59:32;2.08;;;1.13;;
35496;SDS011;21609;49.298;6.844;2023-12-20T09:01:58;1.67;;;1.10;;
35496;SDS011;21609;49.298;6.844;2023-12-20T09:04:24;1.83;;;1.13;;
35496;SDS011;21609;49.298;6.844;2023-12-20T09:06:49;1.00;;;0.90;;
35496;SDS011;21609;49.298;6.844;2023-12-20T09:09:15;1.08;;;0.82;;
35496;SDS011;21609;49.298;6.844;2023-12-20T09:11:41;0.82;;;0.82;;
35496;SDS011;21609;49.298;6.844;2023-12-20T09:14:07;2.08;;;1.15;;
35496;SDS011;21609;49.298;6.844;2023-12-20T09:16:32;0.90;;;0.90;;
35496;SDS011;21609;49.298;6.844;2023-12-20T09:18:58;2.38;;;0.93;;
35496;SDS011;21609;49.298;6.844;2023-12-20T09:21:24;1.42;;;0.90;;
35496;SDS011;21609;49.298;6.844;2023-12-20T09:23:49;1.90;;;1.00;;
35496;SDS011;21609;49.298;6.844;2023-12-20T09:26:15;2.72;;;1.30;;
35496;SDS011;21609;49.298;6.844;2023-12-20T09:28:40;1.95;;;0.90;;
35496;SDS011;21609;49.298;6.844;2023-12-20T09:31:06;0.95;;;0.75;;
35496;SDS011;21609;49.298;6.844;2023-12-20T09:33:32;2.40;;;1.20;;
35496;SDS011;21609;49.298;6.844;2023-12-20T09:35:58;1.45;;;0.90;;
35496;SDS011;21609;49.298;6.844;2023-12-20T09:38:24;2.92;;;1.40;;
35496;SDS011;21609;49.298;6.844;2023-12-20T09:40:49;1.42;;;1.33;;
35496;SDS011;21609;49.298;6.844;2023-12-20T09:43:15;0.70;;;0.70;;
35496;SDS011;21609;49.298;6.844;2023-12-20T09:45:47;1.00;;;0.90;;
35496;SDS011;21609;49.298;6.844;2023-12-20T09:48:13;1.80;;;1.27;;
35496;SDS011;21609;49.298;6.844;2023-12-20T09:50:41;1.65;;;0.93;;
35496;SDS011;21609;49.298;6.844;2023-12-20T09:53:11;2.28;;;1.00;;
35496;SDS011;21609;49.298;6.844;2023-12-20T09:55:40;1.27;;;0.88;;
35496;SDS011;21609;49.298;6.844;2023-12-20T09:58:07;1.27;;;1.13;;
35496;SDS011;21609;49.298;6.844;2023-12-20T10:00:33;1.27;;;1.00;;
35496;SDS011;21609;49.298;6.844;2023-12-20T10:03:00;2.25;;;1.00;;
35496;SDS011;21609;49.298;6.844;2023-12-20T10:05:32;1.85;;;1.13;;
35496;SDS011;21609;49.298;6.844;2023-12-20T10:07:59;1.15;;;0.70;;
35496;SDS011;21609;49.298;6.844;2023-12-20T10:10:26;0.80;;;0.80;;
35496;SDS011;21609;49.298;6.844;2023-12-20T10:13:01;1.15;;;0.90;;
35496;SDS011;21609;49.298;6.844;2023-12-20T10:17:58;1.45;;;0.98;;
35496;SDS011;21609;49.298;6.844;2023-12-20T10:20:24;1.33;;;0.80;;
35496;SDS011;21609;49.298;6.844;2023-12-20T10:22:50;1.80;;;0.95;;
35496;SDS011;21609;49.298;6.844;2023-12-20T10:25:18;2.47;;;1.45;;
35496;SDS011;21609;49.298;6.844;2023-12-20T10:27:44;1.85;;;1.35;;
35496;SDS011;21609;49.298;6.844;2023-12-20T10:30:10;1.25;;;0.88;;
35496;SDS011;21609;49.298;6.844;2023-12-20T10:32:36;2.28;;;1.17;;
35496;SDS011;21609;49.298;6.844;2023-12-20T10:35:01;1.70;;;1.23;;
35496;SDS011;21609;49.298;6.844;2023-12-20T10:37:27;1.35;;;0.73;;
35496;SDS011;21609;49.298;6.844;2023-12-20T10:39:53;1.70;;;1.10;;
35496;SDS011;21609;49.298;6.844;2023-12-20T10:42:27;3.10;;;1.52;;
35496;SDS011;21609;49.298;6.844;2023-12-20T10:44:53;2.67;;;1.65;;
35496;SDS011;21609;49.298;6.844;2023-12-20T10:47:19;2.60;;;1.30;;
35496;SDS011;21609;49.298;6.844;2023-12-20T10:49:45;1.77;;;1.40;;
35496;SDS011;21609;49.298;6.844;2023-12-20T10:52:12;3.13;;;1.10;;
35496;SDS011;21609;49.298;6.844;2023-12-20T10:54:38;2.88;;;1.65;;
35496;SDS011;21609;49.298;6.844;2023-12-20T10:57:06;3.17;;;1.30;;
35496;SDS011;21609;49.298;6.844;2023-12-20T10:59:36;1.90;;;0.90;;
35496;SDS011;21609;49.298;6.844;2023-12-20T11:02:03;1.25;;;1.10;;
35496;SDS011;21609;49.298;6.844;2023-12-20T11:07:25;3.13;;;1.40;;
35496;SDS011;21609;49.298;6.844;2023-12-20T11:10:13;3.13;;;1.13;;
35496;SDS011;21609;49.298;6.844;2023-12-20T11:12:56;7.80;;;3.45;;
35496;SDS011;21609;49.298;6.844;2023-12-20T11:15:26;5.45;;;3.17;;
35496;SDS011;21609;49.298;6.844;2023-12-20T11:17:56;6.93;;;3.28;;
35496;SDS011;21609;49.298;6.844;2023-12-20T11:20:24;6.28;;;2.85;;
35496;SDS011;21609;49.298;6.844;2023-12-20T11:22:59;4.70;;;2.47;;
35496;SDS011;21609;49.298;6.844;2023-12-20T11:25:25;4.47;;;2.60;;
35496;SDS011;21609;49.298;6.844;2023-12-20T11:28:08;5.22;;;2.72;;
35496;SDS011;21609;49.298;6.844;2023-12-20T11:30:41;5.43;;;2.22;;
35496;SDS011;21609;49.298;6.844;2023-12-20T11:33:29;2.78;;;1.60;;
35496;SDS011;21609;49.298;6.844;2023-12-20T11:35:56;4.03;;;2.20;;
35496;SDS011;21609;49.298;6.844;2023-12-20T11:38:24;4.65;;;2.65;;
35496;SDS011;21609;49.298;6.844;2023-12-20T11:40:50;4.80;;;3.30;;
35496;SDS011;21609;49.298;6.844;2023-12-20T11:46:19;6.55;;;3.00;;
35496;SDS011;21609;49.298;6.844;2023-12-20T11:48:45;4.10;;;3.10;;
35496;SDS011;21609;49.298;6.844;2023-12-20T11:51:12;3.75;;;2.53;;
35496;SDS011;21609;49.298;6.844;2023-12-20T11:53:38;7.82;;;3.15;;
35496;SDS011;21609;49.298;6.844;2023-12-20T11:56:05;5.28;;;2.78;;
35496;SDS011;21609;49.298;6.844;2023-12-20T11:58:32;4.85;;;2.20;;
35496;SDS011;21609;49.298;6.844;2023-12-20T12:00:57;3.70;;;2.53;;
35496;SDS011;21609;49.298;6.844;2023-12-20T12:03:23;6.32;;;3.25;;
35496;SDS011;21609;49.298;6.844;2023-12-20T12:05:49;5.53;;;2.30;;
35496;SDS011;21609;49.298;6.844;2023-12-20T12:08:14;5.20;;;2.70;;
35496;SDS011;21609;49.298;6.844;2023-12-20T12:10:40;5.13;;;2.50;;
35496;SDS011;21609;49.298;6.844;2023-12-20T12:13:06;5.20;;;2.58;;
35496;SDS011;21609;49.298;6.844;2023-12-20T12:15:32;5.00;;;2.28;;
35496;SDS011;21609;49.298;6.844;2023-12-20T12:17:57;2.90;;;2.15;;
35496;SDS011;21609;49.298;6.844;2023-12-20T12:20:24;3.97;;;2.28;;
35496;SDS011;21609;49.298;6.844;2023-12-20T12:23:05;3.35;;;2.10;;
35496;SDS011;21609;49.298;6.844;2023-12-20T12:25:32;4.00;;;2.22;;
35496;SDS011;21609;49.298;6.844;2023-12-20T12:28:01;4.95;;;1.98;;
35496;SDS011;21609;49.298;6.844;2023-12-20T12:30:27;4.55;;;2.22;;
35496;SDS011;21609;49.298;6.844;2023-12-20T12:32:53;2.53;;;1.38;;
35496;SDS011;21609;49.298;6.844;2023-12-20T12:35:21;3.50;;;2.08;;
35496;SDS011;21609;49.298;6.844;2023-12-20T12:37:47;3.88;;;1.65;;
35496;SDS011;21609;49.298;6.844;2023-12-20T12:40:13;4.82;;;2.00;;
35496;SDS011;21609;49.298;6.844;2023-12-20T12:42:40;2.13;;;1.27;;
35496;SDS011;21609;49.298;6.844;2023-12-20T12:45:08;5.15;;;2.67;;
35496;SDS011;21609;49.298;6.844;2023-12-20T12:47:34;3.53;;;1.60;;
35496;SDS011;21609;49.298;6.844;2023-12-20T12:50:00;9.05;;;1.33;;
35496;SDS011;21609;49.298;6.844;2023-12-20T12:52:26;6.40;;;1.98;;
35496;SDS011;21609;49.298;6.844;2023-12-20T12:54:52;4.00;;;1.52;;
35496;SDS011;21609;49.298;6.844;2023-12-20T12:57:18;3.22;;;2.08;;
35496;SDS011;21609;49.298;6.844;2023-12-20T12:59:44;3.17;;;1.48;;
35496;SDS011;21609;49.298;6.844;2023-12-20T13:02:11;1.50;;;1.10;;
35496;SDS011;21609;49.298;6.844;2023-12-20T13:04:41;4.10;;;1.20;;
35496;SDS011;21609;49.298;6.844;2023-12-20T13:07:07;2.97;;;1.33;;
35496;SDS011;21609;49.298;6.844;2023-12-20T13:09:37;4.40;;;1.53;;
35496;SDS011;21609;49.298;6.844;2023-12-20T13:12:03;4.13;;;2.05;;
35496;SDS011;21609;49.298;6.844;2023-12-20T13:14:31;5.32;;;1.55;;
35496;SDS011;21609;49.298;6.844;2023-12-20T13:16:59;2.45;;;1.42;;
35496;SDS011;21609;49.298;6.844;2023-12-20T13:19:25;2.88;;;1.40;;
35496;SDS011;21609;49.298;6.844;2023-12-20T13:21:50;3.30;;;1.55;;
35496;SDS011;21609;49.298;6.844;2023-12-20T13:24:16;4.20;;;1.45;;
35496;SDS011;21609;49.298;6.844;2023-12-20T13:26:42;1.75;;;1.13;;
35496;SDS011;21609;49.298;6.844;2023-12-20T13:29:07;3.83;;;1.65;;
35496;SDS011;21609;49.298;6.844;2023-12-20T13:31:33;1.73;;;1.58;;
35496;SDS011;21609;49.298;6.844;2023-12-20T13:33:58;2.22;;;1.30;;
35496;SDS011;21609;49.298;6.844;2023-12-20T13:36:25;3.33;;;1.60;;
35496;SDS011;21609;49.298;6.844;2023-12-20T13:38:51;2.20;;;1.67;;
35496;SDS011;21609;49.298;6.844;2023-12-20T13:41:16;1.70;;;1.00;;
35496;SDS011;21609;49.298;6.844;2023-12-20T13:43:42;4.07;;;1.38;;
35496;SDS011;21609;49.298;6.844;2023-12-20T13:46:07;2.72;;;1.48;;
35496;SDS011;21609;49.298;6.844;2023-12-20T13:48:34;3.28;;;1.05;;
35496;SDS011;21609;49.298;6.844;2023-12-20T13:51:00;3.05;;;1.42;;
35496;SDS011;21609;49.298;6.844;2023-12-20T13:53:25;2.33;;;1.20;;
35496;SDS011;21609;49.298;6.844;2023-12-20T13:55:51;3.13;;;1.15;;
35496;SDS011;21609;49.298;6.844;2023-12-20T13:58:16;3.95;;;1.38;;
35496;SDS011;21609;49.298;6.844;2023-12-20T14:00:42;1.98;;;1.60;;
35496;SDS011;21609;49.298;6.844;2023-12-20T14:03:07;2.70;;;1.10;;
35496;SDS011;21609;49.298;6.844;2023-12-20T14:05:34;1.90;;;1.13;;
35496;SDS011;21609;49.298;6.844;2023-12-20T14:08:00;6.00;;;1.83;;
35496;SDS011;21609;49.298;6.844;2023-12-20T14:10:26;1.40;;;1.15;;
35496;SDS011;21609;49.298;6.844;2023-12-20T14:12:53;2.33;;;1.20;;
35496;SDS011;21609;49.298;6.844;2023-12-20T14:15:19;5.38;;;1.42;;
35496;SDS011;21609;49.298;6.844;2023-12-20T14:17:45;5.82;;;1.42;;
35496;SDS011;21609;49.298;6.844;2023-12-20T14:20:11;4.03;;;1.52;;
35496;SDS011;21609;49.298;6.844;2023-12-20T14:22:40;2.97;;;1.27;;
35496;SDS011;21609;49.298;6.844;2023-12-20T14:25:10;2.08;;;1.13;;
35496;SDS011;21609;49.298;6.844;2023-12-20T14:27:37;6.47;;;1.40;;
35496;SDS011;21609;49.298;6.844;2023-12-20T14:30:03;1.85;;;1.30;;
35496;SDS011;21609;49.298;6.844;2023-12-20T14:32:29;2.50;;;1.00;;
35496;SDS011;21609;49.298;6.844;2023-12-20T14:34:54;3.20;;;1.00;;
35496;SDS011;21609;49.298;6.844;2023-12-20T14:37:22;1.98;;;0.90;;
35496;SDS011;21609;49.298;6.844;2023-12-20T14:39:48;1.52;;;0.88;;
35496;SDS011;21609;49.298;6.844;2023-12-20T14:42:13;2.38;;;0.98;;
35496;SDS011;21609;49.298;6.844;2023-12-20T14:44:39;2.25;;;1.05;;
35496;SDS011;21609;49.298;6.844;2023-12-20T14:47:08;4.00;;;1.40;;
35496;SDS011;21609;49.298;6.844;2023-12-20T14:49:34;1.88;;;1.02;;
35496;SDS011;21609;49.298;6.844;2023-12-20T14:52:00;2.88;;;1.20;;